createdAt,value
2018-04-27T00:02:01.914Z,94.40
2018-04-27T00:04:30.121Z,94.80
2018-04-27T00:06:57.544Z,94.80
2018-04-27T00:09:25.752Z,95.00
2018-04-27T00:11:53.174Z,95.00
2018-04-27T00:14:21.371Z,95.00
2018-04-27T00:16:48.807Z,94.90
2018-04-27T00:19:17.007Z,95.30
2018-04-27T00:21:44.423Z,95.30
2018-04-27T00:24:11.855Z,95.20
2018-04-27T00:26:39.278Z,95.40
2018-04-27T00:29:06.710Z,95.40
2018-04-27T00:31:34.130Z,96.00
2018-04-27T00:34:01.563Z,95.60
2018-04-27T00:36:28.990Z,96.00
2018-04-27T00:38:56.414Z,96.30
2018-04-27T00:41:24.602Z,96.10
2018-04-27T00:43:52.806Z,96.30
2018-04-27T00:46:20.991Z,96.50
2018-04-27T00:48:48.437Z,96.50
2018-04-27T00:51:15.854Z,96.30
2018-04-27T00:53:44.057Z,96.60
2018-04-27T00:56:11.471Z,96.50
2018-04-27T00:58:38.903Z,97.20
2018-04-27T01:01:06.330Z,97.50
2018-04-27T01:03:33.759Z,97.90
2018-04-27T01:06:01.963Z,97.90
2018-04-27T01:08:29.381Z,97.90
2018-04-27T01:10:57.574Z,98.20
2018-04-27T01:13:24.995Z,98.10
2018-04-27T01:15:52.431Z,98.80
2018-04-27T01:18:19.872Z,98.30
2018-04-27T01:20:47.307Z,98.50
2018-04-27T01:23:14.718Z,98.30
2018-04-27T01:25:42.151Z,97.80
2018-04-27T01:28:09.578Z,98.40
2018-04-27T01:30:37.006Z,98.00
2018-04-27T01:33:04.433Z,98.30
2018-04-27T01:35:31.861Z,98.30
2018-04-27T01:37:59.300Z,98.60
2018-04-27T01:40:26.730Z,98.70
2018-04-27T01:42:54.159Z,99.90
2018-04-27T01:45:21.594Z,99.90
2018-04-27T01:47:49.024Z,99.70
2018-04-27T01:50:16.458Z,99.70
2018-04-27T01:52:43.883Z,99.90
2018-04-27T01:55:11.314Z,99.90
2018-04-27T01:57:38.739Z,99.90
2018-04-27T02:00:06.171Z,99.80
2018-04-27T02:02:33.615Z,99.90
2018-04-27T02:05:01.042Z,99.90
2018-04-27T02:07:28.473Z,99.90
2018-04-27T02:09:56.675Z,99.90
2018-04-27T02:12:24.110Z,99.90
2018-04-27T02:14:51.553Z,99.90
2018-04-27T02:17:18.983Z,99.90
2018-04-27T02:19:47.193Z,99.90
2018-04-27T02:22:14.623Z,99.90
2018-04-27T02:24:43.007Z,99.90
2018-04-27T02:27:10.462Z,99.90
2018-04-27T02:29:37.904Z,99.90
2018-04-27T02:32:05.351Z,99.90
2018-04-27T02:34:33.567Z,99.90
2018-04-27T02:37:01.094Z,99.90
2018-04-27T02:39:28.439Z,99.90
2018-04-27T02:41:56.647Z,99.90
2018-04-27T02:44:24.072Z,99.90
2018-04-27T02:46:52.271Z,99.90
2018-04-27T02:49:20.379Z,99.90
2018-04-27T02:51:47.822Z,99.90
2018-04-27T02:54:15.680Z,99.90
2018-04-27T02:56:43.127Z,99.90
2018-04-27T02:59:10.557Z,99.90
2018-04-27T03:01:37.995Z,99.90
2018-04-27T03:04:05.427Z,99.90
2018-04-27T03:06:32.863Z,99.90
2018-04-27T03:09:00.306Z,99.90
2018-04-27T03:11:27.739Z,99.90
2018-04-27T03:13:55.167Z,99.90
2018-04-27T03:16:22.608Z,99.90
2018-04-27T03:18:50.039Z,99.90
2018-04-27T03:21:17.473Z,99.90
2018-04-27T03:23:44.921Z,99.90
2018-04-27T03:26:13.118Z,99.90
2018-04-27T03:28:40.534Z,99.90
2018-04-27T03:31:08.747Z,99.90
2018-04-27T03:33:36.170Z,99.90
2018-04-27T03:36:04.371Z,99.90
2018-04-27T03:38:31.791Z,99.90
2018-04-27T03:40:59.994Z,99.90
2018-04-27T03:43:27.422Z,99.90
2018-04-27T03:45:55.637Z,99.90
2018-04-27T03:48:23.420Z,99.90
2018-04-27T03:50:50.920Z,99.90
2018-04-27T03:53:19.208Z,99.90
2018-04-27T03:55:47.447Z,99.90
2018-04-27T03:58:14.974Z,99.90
2018-04-27T04:00:54.240Z,99.90
2018-04-27T04:03:33.578Z,99.90
2018-04-27T04:06:01.060Z,99.90
2018-04-27T04:08:29.171Z,99.90
2018-04-27T04:10:56.691Z,99.90
2018-04-27T04:13:24.936Z,99.90
2018-04-27T04:15:52.455Z,99.90
2018-04-27T04:18:19.963Z,99.90
2018-04-27T04:20:47.492Z,99.90
2018-04-27T04:23:15.006Z,99.90
2018-04-27T04:25:42.523Z,99.90
2018-04-27T04:31:14.173Z,99.90
2018-04-27T04:33:41.631Z,99.90
2018-04-27T04:36:09.095Z,99.90
2018-04-27T04:38:36.677Z,99.90
2018-04-27T04:41:04.127Z,99.90
2018-04-27T04:43:31.572Z,99.90
2018-04-27T04:45:59.007Z,99.90
2018-04-27T04:48:26.438Z,99.90
2018-04-27T04:50:54.855Z,99.90
2018-04-27T04:53:22.271Z,99.90
2018-04-27T04:55:50.462Z,99.90
2018-04-27T04:58:17.919Z,99.90
2018-04-27T05:00:45.359Z,99.90
2018-04-27T05:03:12.791Z,99.90
2018-04-27T05:05:40.517Z,99.90
2018-04-27T05:08:07.942Z,99.90
2018-04-27T05:10:35.446Z,99.90
2018-04-27T05:13:02.812Z,99.90
2018-04-27T05:15:30.247Z,99.90
2018-04-27T05:17:57.670Z,99.90
2018-04-27T05:20:25.384Z,99.90
2018-04-27T05:22:52.820Z,99.90
2018-04-27T05:25:20.260Z,99.90
2018-04-27T05:27:47.682Z,99.90
2018-04-27T05:30:15.102Z,99.90
2018-04-27T05:32:42.543Z,99.80
2018-04-27T05:35:10.005Z,99.40
2018-04-27T05:37:37.489Z,99.90
2018-04-27T05:40:04.911Z,99.40
2018-04-27T05:42:32.347Z,99.90
2018-04-27T05:44:59.775Z,99.90
2018-04-27T05:47:27.195Z,99.50
2018-04-27T05:49:54.639Z,98.80
2018-04-27T05:52:22.066Z,95.50
2018-04-27T05:54:49.490Z,92.70
2018-04-27T05:57:16.935Z,91.20
2018-04-27T05:59:44.362Z,83.90
2018-04-27T06:02:11.786Z,79.60
2018-04-27T06:04:40.029Z,75.00
2018-04-27T06:07:07.463Z,74.90
2018-04-27T06:09:35.901Z,73.20
2018-04-27T06:12:04.091Z,71.10
2018-04-27T06:14:31.867Z,71.10
2018-04-27T06:16:59.407Z,71.50
2018-04-27T06:19:26.951Z,69.90
2018-04-27T06:21:55.244Z,62.90
2018-04-27T06:24:22.742Z,63.00
2018-04-27T06:26:50.175Z,64.30
2018-04-27T06:29:17.620Z,63.60
2018-04-27T06:31:45.122Z,64.40
2018-04-27T06:34:13.247Z,65.00
2018-04-27T06:36:40.670Z,64.90
2018-04-27T06:39:08.886Z,62.90
2018-04-27T06:41:36.306Z,62.70
2018-04-27T06:44:04.505Z,57.50
2018-04-27T06:46:31.930Z,58.00
2018-04-27T06:49:00.134Z,57.20
2018-04-27T06:51:27.577Z,55.70
2018-04-27T06:53:55.766Z,54.70
2018-04-27T06:56:23.190Z,54.60
2018-04-27T06:58:50.684Z,55.40
2018-04-27T07:01:18.173Z,57.10
2018-04-27T07:03:45.663Z,57.40
2018-04-27T07:06:13.109Z,57.70
2018-04-27T07:08:40.547Z,57.50
2018-04-27T07:11:07.982Z,59.70
2018-04-27T07:13:35.423Z,58.90
2018-04-27T07:16:02.842Z,58.30
2018-04-27T07:18:31.060Z,59.00
2018-04-27T07:20:58.490Z,59.00
2018-04-27T07:23:26.690Z,58.90
2018-04-27T07:25:54.192Z,58.80
2018-04-27T07:28:21.550Z,59.50
2018-04-27T07:30:49.765Z,58.90
2018-04-27T07:33:17.195Z,59.30
2018-04-27T07:35:45.402Z,58.30
2018-04-27T07:38:12.837Z,58.30
2018-04-27T07:40:40.269Z,58.90
2018-04-27T07:43:07.686Z,59.60
2018-04-27T07:45:35.126Z,58.90
2018-04-27T07:48:02.556Z,58.20
2018-04-27T07:50:30.755Z,58.00
2018-04-27T07:52:58.188Z,58.30
2018-04-27T07:55:25.697Z,58.70
2018-04-27T07:57:53.814Z,57.50
2018-04-27T08:00:21.275Z,57.40
2018-04-27T08:02:49.470Z,57.10
2018-04-27T08:05:16.924Z,57.10
2018-04-27T08:07:44.339Z,55.80
2018-04-27T08:10:12.542Z,56.20
2018-04-27T08:12:39.982Z,56.10
2018-04-27T08:15:07.414Z,54.80
2018-04-27T08:17:34.919Z,54.80
2018-04-27T08:20:02.346Z,55.20
2018-04-27T08:22:29.774Z,53.80
2018-04-27T08:24:57.205Z,53.60
2018-04-27T08:27:24.635Z,53.90
2018-04-27T08:29:52.072Z,52.30
2018-04-27T08:32:20.275Z,50.80
2018-04-27T08:34:47.731Z,50.80
2018-04-27T08:37:15.171Z,50.00
2018-04-27T08:39:43.364Z,47.10
2018-04-27T08:42:10.804Z,45.40
2018-04-27T08:44:38.243Z,45.60
2018-04-27T08:47:06.434Z,44.80
2018-04-27T08:49:33.878Z,44.80
2018-04-27T08:52:02.120Z,45.50
2018-04-27T08:54:29.572Z,45.50
2018-04-27T08:56:57.006Z,43.60
2018-04-27T08:59:24.447Z,42.10
2018-04-27T09:01:51.898Z,43.20
2018-04-27T09:04:19.331Z,42.30
2018-04-27T09:06:47.544Z,41.30
2018-04-27T09:09:14.974Z,41.20
2018-04-27T09:11:42.410Z,41.70
2018-04-27T09:14:10.614Z,42.20
2018-04-27T09:16:38.044Z,42.20
2018-04-27T09:19:06.243Z,42.80
2018-04-27T09:21:33.689Z,42.80
2018-04-27T09:24:01.116Z,42.30
2018-04-27T09:26:28.546Z,43.70
2018-04-27T09:28:55.984Z,42.70
2018-04-27T09:31:23.423Z,42.70
2018-04-27T09:33:50.845Z,41.80
2018-04-27T09:36:19.057Z,41.80
2018-04-27T09:38:46.478Z,41.80
2018-04-27T09:41:14.690Z,41.80
2018-04-27T09:43:42.142Z,41.80
2018-04-27T09:46:10.338Z,39.50
2018-04-27T09:48:37.779Z,39.50
2018-04-27T09:51:06.013Z,43.00
2018-04-27T09:53:34.269Z,43.30
2018-04-27T09:56:01.699Z,43.40
2018-04-27T09:58:29.133Z,41.70
2018-04-27T10:00:57.340Z,42.20
2018-04-27T10:03:24.771Z,41.50
2018-04-27T10:05:52.215Z,42.00
2018-04-27T10:08:19.642Z,44.00
2018-04-27T10:10:47.848Z,42.30
2018-04-27T10:13:15.275Z,42.40
2018-04-27T10:15:43.483Z,41.60
2018-04-27T10:18:10.918Z,41.50
2018-04-27T10:20:38.347Z,41.30
2018-04-27T10:23:06.549Z,44.50
2018-04-27T10:25:33.982Z,44.40
2018-04-27T10:28:02.189Z,43.80
2018-04-27T10:30:29.640Z,43.80
2018-04-27T10:32:57.063Z,41.30
2018-04-27T10:35:25.263Z,40.80
2018-04-27T10:37:52.699Z,40.70
2018-04-27T10:40:20.905Z,40.90
2018-04-27T10:42:48.339Z,40.90
2018-04-27T10:45:15.768Z,43.50
2018-04-27T10:47:43.198Z,42.10
2018-04-27T10:50:10.671Z,41.10
2018-04-27T10:52:38.136Z,41.40
2018-04-27T10:55:05.559Z,42.50
2018-04-27T10:57:33.006Z,40.90
2018-04-27T11:00:00.439Z,42.00
2018-04-27T11:02:27.869Z,41.80
2018-04-27T11:04:56.070Z,41.20
2018-04-27T11:07:23.513Z,40.90
2018-04-27T11:09:51.713Z,41.60
2018-04-27T11:12:19.148Z,41.60
2018-04-27T11:14:46.632Z,43.50
2018-04-27T11:17:14.073Z,43.00
2018-04-27T11:19:41.498Z,41.60
2018-04-27T11:22:08.942Z,43.20
2018-04-27T11:24:36.366Z,41.80
2018-04-27T11:27:03.810Z,42.10
2018-04-27T11:29:31.251Z,39.80
2018-04-27T11:31:58.683Z,39.40
2018-04-27T11:34:26.886Z,40.10
2018-04-27T11:36:54.316Z,40.00
2018-04-27T11:39:22.522Z,38.90
2018-04-27T11:41:49.967Z,38.80
2018-04-27T11:44:17.399Z,41.90
2018-04-27T11:46:44.832Z,38.90
2018-04-27T11:49:12.262Z,40.00
2018-04-27T11:51:39.738Z,40.70
2018-04-27T11:54:07.175Z,40.90
2018-04-27T11:56:34.617Z,42.30
2018-04-27T11:59:02.047Z,41.70
2018-04-27T12:01:29.494Z,43.20
2018-04-27T12:03:57.692Z,44.00
2018-04-27T12:06:25.122Z,44.00
2018-04-27T12:08:53.314Z,40.90
2018-04-27T12:11:20.738Z,40.80
2018-04-27T12:13:48.951Z,41.90
2018-04-27T12:16:16.396Z,41.80
2018-04-27T12:18:43.835Z,43.30
2018-04-27T12:21:12.031Z,44.30
2018-04-27T12:23:39.475Z,44.20
2018-04-27T12:26:06.906Z,44.40
2018-04-27T12:28:34.334Z,45.20
2018-04-27T12:31:01.845Z,45.30
2018-04-27T12:33:29.222Z,45.60
2018-04-27T12:35:56.655Z,46.60
2018-04-27T12:38:24.119Z,44.00
2018-04-27T12:40:51.550Z,44.20
2018-04-27T12:43:19.750Z,44.00
2018-04-27T12:45:47.187Z,44.10
2018-04-27T12:48:15.404Z,43.90
2018-04-27T12:50:42.836Z,44.00
2018-04-27T12:53:10.278Z,42.90
2018-04-27T12:55:38.473Z,43.40
2018-04-27T12:58:05.951Z,43.30
2018-04-27T13:00:33.387Z,43.70
2018-04-27T13:03:00.814Z,45.80
2018-04-27T13:05:29.008Z,44.90
2018-04-27T13:07:56.451Z,44.80
2018-04-27T13:10:24.650Z,45.10
2018-04-27T13:12:52.855Z,44.50
2018-04-27T13:15:20.287Z,44.40
2018-04-27T13:17:47.734Z,44.10
2018-04-27T13:20:15.191Z,43.30
2018-04-27T13:22:42.615Z,43.40
2018-04-27T13:25:10.821Z,44.90
2018-04-27T13:27:38.291Z,44.80
2018-04-27T13:30:05.711Z,44.30
2018-04-27T13:32:33.147Z,45.20
2018-04-27T13:35:01.350Z,45.80
2018-04-27T13:37:28.782Z,45.80
2018-04-27T13:39:57.029Z,44.90
2018-04-27T13:42:24.434Z,44.80
2018-04-27T13:44:51.866Z,45.20
2018-04-27T13:47:20.066Z,44.70
2018-04-27T13:49:47.491Z,44.70
2018-04-27T13:52:15.737Z,45.90
2018-04-27T13:54:43.223Z,45.70
2018-04-27T13:57:11.471Z,47.10
2018-04-27T13:59:38.917Z,47.00
2018-04-27T14:02:06.346Z,46.00
2018-04-27T14:04:33.773Z,45.30
2018-04-27T14:07:01.982Z,43.80
2018-04-27T14:09:29.423Z,43.80
2018-04-27T14:11:56.872Z,44.90
2018-04-27T14:14:25.063Z,45.20
2018-04-27T14:16:52.493Z,45.20
2018-04-27T14:19:20.698Z,44.60
2018-04-27T14:21:48.141Z,45.20
2018-04-27T14:24:15.574Z,45.30
2018-04-27T14:26:43.863Z,45.30
2018-04-27T14:29:11.227Z,45.00
2018-04-27T14:31:38.649Z,45.70
2018-04-27T14:34:06.078Z,45.10
2018-04-27T14:36:33.505Z,45.20
2018-04-27T14:39:00.955Z,46.00
2018-04-27T14:41:28.379Z,46.60
2018-04-27T14:43:56.610Z,45.90
2018-04-27T14:46:24.309Z,45.90
2018-04-27T14:48:52.030Z,45.90
2018-04-27T14:51:19.674Z,45.70
2018-04-27T14:53:47.166Z,45.30
2018-04-27T14:56:14.601Z,45.70
2018-04-27T14:58:42.046Z,45.70
2018-04-27T15:01:09.491Z,46.20
2018-04-27T15:03:54.470Z,46.10
2018-04-27T15:06:21.899Z,46.00
2018-04-27T15:08:50.106Z,45.40
2018-04-27T15:11:17.538Z,45.40
2018-04-27T15:13:44.970Z,45.70
2018-04-27T15:16:13.169Z,45.30
2018-04-27T15:18:42.554Z,45.20
2018-04-27T15:21:10.759Z,46.80
2018-04-27T15:23:38.199Z,44.50
2018-04-27T15:26:05.634Z,45.30
2018-04-27T15:28:34.012Z,45.20
2018-04-27T15:31:02.208Z,45.60
2018-04-27T15:33:29.638Z,45.50
2018-04-27T15:35:57.839Z,46.80
2018-04-27T15:38:25.971Z,46.80
2018-04-27T15:40:55.118Z,45.50
2018-04-27T15:43:22.552Z,46.00
2018-04-27T15:45:49.987Z,46.30
2018-04-27T15:48:18.187Z,46.70
2018-04-27T15:50:45.625Z,46.90
2018-04-27T15:53:14.362Z,46.10
2018-04-27T15:55:41.802Z,46.20
2018-04-27T15:58:09.246Z,46.60
2018-04-27T16:00:36.746Z,46.00
2018-04-27T16:03:04.170Z,46.60
2018-04-27T16:05:31.640Z,46.40
2018-04-27T16:07:59.085Z,47.00
2018-04-27T16:10:27.881Z,46.40
2018-04-27T16:16:01.102Z,47.30
2018-04-27T16:18:28.538Z,45.80
2018-04-27T16:20:55.975Z,46.50
2018-04-27T16:23:23.399Z,47.10
2018-04-27T16:25:50.838Z,46.60
2018-04-27T16:28:18.262Z,46.70
2018-04-27T16:30:45.704Z,47.50
2018-04-27T16:33:13.184Z,47.50
2018-04-27T16:35:40.629Z,47.90
2018-04-27T16:38:08.098Z,47.40
2018-04-27T16:40:35.583Z,47.90
2018-04-27T16:43:03.018Z,47.70
2018-04-27T16:45:30.462Z,48.40
2018-04-27T16:47:57.896Z,48.70
2018-04-27T16:50:25.387Z,47.70
2018-04-27T16:52:52.862Z,47.40
2018-04-27T16:55:20.388Z,47.50
2018-04-27T16:57:47.900Z,48.30
2018-04-27T17:00:16.322Z,48.30
2018-04-27T17:02:43.805Z,48.40
2018-04-27T17:05:11.256Z,49.50
2018-04-27T17:07:38.723Z,49.00
2018-04-27T17:10:06.201Z,49.00
2018-04-27T17:12:33.685Z,50.10
2018-04-27T17:15:01.128Z,50.30
2018-04-27T17:17:29.411Z,51.20
2018-04-27T17:19:56.950Z,51.10
2018-04-27T17:22:24.434Z,52.40
2018-04-27T17:24:51.838Z,52.90
2018-04-27T17:27:19.495Z,53.50
2018-04-27T17:29:46.946Z,53.70
2018-04-27T17:32:14.394Z,54.80
2018-04-27T17:34:41.966Z,55.90
2018-04-27T17:37:09.485Z,57.40
2018-04-27T17:39:36.943Z,58.00
2018-04-27T17:42:04.415Z,59.70
2018-04-27T17:44:31.905Z,60.50
2018-04-27T17:46:59.404Z,61.80
2018-04-27T17:49:27.665Z,61.20
2018-04-27T17:51:55.951Z,62.90
2018-04-27T17:54:23.720Z,64.00
2018-04-27T17:56:51.574Z,65.50
2018-04-27T17:59:19.222Z,65.70
2018-04-27T18:01:46.659Z,65.40
2018-04-27T18:04:14.103Z,66.70
2018-04-27T18:06:42.324Z,65.80
2018-04-27T18:09:10.531Z,66.90
2018-04-27T18:11:37.988Z,66.90
2018-04-27T18:14:05.409Z,67.20
2018-04-27T18:16:33.603Z,69.10
2018-04-27T18:19:01.030Z,69.10
2018-04-27T18:21:29.316Z,65.90
2018-04-27T18:23:57.576Z,66.20
2018-04-27T18:26:25.046Z,66.30
2018-04-27T18:28:53.256Z,61.50
2018-04-27T18:31:20.765Z,61.80
2018-04-27T18:33:48.254Z,62.00
2018-04-27T18:36:15.770Z,61.40
2018-04-27T18:38:43.256Z,58.30
2018-04-27T18:41:10.692Z,60.00
2018-04-27T18:43:38.163Z,62.20
2018-04-27T18:46:05.559Z,63.60
2018-04-27T18:48:32.995Z,64.20
2018-04-27T18:51:00.467Z,62.80
2018-04-27T18:53:29.699Z,64.80
2018-04-27T18:55:57.135Z,66.10
2018-04-27T18:58:24.566Z,65.50
2018-04-27T19:00:52.823Z,64.90
2018-04-27T19:03:20.341Z,60.90
2018-04-27T19:05:48.498Z,57.40
2018-04-27T19:08:15.933Z,57.30
2018-04-27T19:10:44.804Z,55.90
2018-04-27T19:13:12.249Z,55.90
2018-04-27T19:15:40.446Z,56.00
2018-04-27T19:18:07.891Z,56.00
2018-04-27T19:20:35.323Z,56.80
2018-04-27T19:23:13.094Z,57.70
2018-04-27T19:25:51.793Z,57.70
2018-04-27T19:28:20.014Z,60.30
2018-04-27T19:30:47.435Z,60.30
2018-04-27T19:33:14.986Z,62.50
2018-04-27T19:35:42.438Z,62.80
2018-04-27T19:38:10.713Z,63.00
2018-04-27T19:40:38.216Z,63.10
2018-04-27T19:43:05.789Z,64.50
2018-04-27T19:45:33.868Z,67.10
2018-04-27T19:48:02.098Z,68.90
2018-04-27T19:50:29.535Z,68.20
2018-04-27T19:52:56.976Z,68.90
2018-04-27T19:55:24.418Z,66.50
2018-04-27T19:57:52.622Z,67.30
2018-04-27T20:00:21.523Z,68.50
2018-04-27T20:02:48.971Z,69.20
2018-04-27T20:05:16.421Z,68.90
2018-04-27T20:07:43.868Z,69.40
2018-04-27T20:10:13.071Z,69.10
2018-04-27T20:12:40.567Z,71.10
2018-04-27T20:15:08.009Z,72.00
2018-04-27T20:17:39.806Z,72.60
2018-04-27T20:20:22.928Z,73.20
2018-04-27T20:22:51.153Z,73.80
2018-04-27T20:25:18.854Z,72.70
2018-04-27T20:27:46.554Z,73.20
2018-04-27T20:30:14.171Z,71.30
2018-04-27T20:32:43.533Z,72.00
2018-04-27T20:35:13.871Z,67.30
2018-04-27T20:37:41.325Z,66.70
2018-04-27T20:40:08.787Z,63.80
2018-04-27T20:42:36.233Z,59.60
2018-04-27T20:45:07.183Z,60.50
2018-04-27T20:47:34.639Z,60.70
2018-04-27T20:50:02.116Z,61.30
2018-04-27T20:52:36.037Z,56.30
2018-04-27T20:55:06.159Z,54.50
2018-04-27T20:57:34.374Z,54.40
2018-04-27T21:00:01.825Z,54.40
2018-04-27T21:02:29.243Z,54.80
2018-04-27T21:04:57.446Z,56.00
2018-04-27T21:07:24.894Z,55.40
2018-04-27T21:09:52.331Z,54.50
2018-04-27T21:12:20.530Z,54.80
2018-04-27T21:14:47.967Z,54.90
2018-04-27T21:17:16.175Z,54.40
2018-04-27T21:19:43.631Z,54.30
2018-04-27T21:22:11.079Z,54.10
2018-04-27T21:24:38.512Z,54.50
2018-04-27T21:27:06.719Z,55.00
2018-04-27T21:29:34.214Z,55.10
2018-04-27T21:32:01.654Z,55.50
2018-04-27T21:34:29.095Z,55.70
2018-04-27T21:36:56.542Z,56.00
2018-04-27T21:39:24.793Z,56.10
2018-04-27T21:41:53.762Z,56.50
2018-04-27T21:44:25.530Z,57.70
2018-04-27T21:50:22.971Z,59.60
2018-04-27T21:52:52.346Z,59.60
2018-04-27T21:55:19.792Z,60.20
2018-04-27T21:57:50.645Z,60.10
2018-04-27T22:00:19.539Z,60.20
2018-04-27T22:03:12.355Z,61.20
2018-04-27T22:08:47.358Z,60.50
2018-04-27T22:11:20.430Z,63.60
2018-04-27T22:13:47.884Z,63.60
2018-04-27T22:16:16.224Z,65.50
2018-04-27T22:18:44.429Z,65.50
2018-04-27T22:21:11.882Z,65.30
2018-04-27T22:23:39.340Z,65.70
2018-04-27T22:26:24.463Z,65.70
2018-04-27T22:28:53.303Z,66.60
2018-04-27T22:31:22.551Z,67.70
2018-04-27T22:33:50.779Z,69.50
2018-04-27T22:36:23.757Z,70.80
2018-04-27T22:39:01.759Z,72.20
2018-04-27T22:41:29.188Z,72.40
2018-04-27T22:43:57.395Z,73.00
2018-04-27T22:46:24.839Z,72.90
2018-04-27T22:48:55.016Z,73.40
2018-04-27T22:51:23.854Z,74.50
2018-04-27T22:53:52.652Z,75.20
2018-04-27T22:59:28.882Z,76.20
2018-04-27T23:02:02.779Z,77.00
2018-04-27T23:04:30.222Z,77.00
2018-04-27T23:06:57.646Z,76.30
2018-04-27T23:09:25.890Z,76.80
2018-04-27T23:11:54.157Z,78.00
2018-04-27T23:14:28.138Z,78.20
2018-04-27T23:16:55.571Z,78.30
2018-04-27T23:19:26.990Z,78.00
2018-04-27T23:21:55.206Z,78.50
2018-04-27T23:24:22.701Z,78.30
2018-04-27T23:26:50.165Z,79.70
2018-04-27T23:29:18.380Z,81.50
2018-04-27T23:31:53.166Z,81.60
2018-04-27T23:34:23.171Z,82.90
2018-04-27T23:36:51.432Z,82.90
2018-04-27T23:39:18.871Z,83.60
2018-04-27T23:41:46.370Z,82.80
2018-04-27T23:44:14.616Z,83.70
2018-04-27T23:46:42.110Z,83.60
2018-04-27T23:49:10.395Z,83.60
2018-04-27T23:51:37.832Z,83.60
2018-04-27T23:54:07.767Z,84.60
2018-04-27T23:56:39.781Z,84.80
2018-04-27T23:59:07.252Z,85.40
